createdAt,value
2022-12-29T06:17:32.574Z,100.00
2022-12-29T06:27:32.446Z,100.00
2022-12-29T06:37:32.541Z,100.00
2022-12-29T06:47:32.533Z,100.00
2022-12-29T06:57:32.705Z,100.00
2022-12-29T07:07:32.786Z,100.00
2022-12-29T07:17:32.632Z,100.00
2022-12-29T07:27:32.734Z,100.00
2022-12-29T07:37:32.683Z,100.00
2022-12-29T07:47:32.591Z,100.00
2022-12-29T07:57:33.627Z,100.00
2022-12-29T08:07:32.680Z,100.00
2022-12-29T08:17:32.715Z,100.00
2022-12-29T08:27:32.776Z,100.00
2022-12-29T08:37:32.942Z,100.00
2022-12-29T08:47:32.958Z,100.00
2022-12-29T08:57:32.932Z,100.00
2022-12-29T09:07:33.105Z,100.00
2022-12-29T09:17:32.990Z,100.00
2022-12-29T09:27:32.978Z,100.00
2022-12-29T09:37:33.274Z,100.00
2022-12-29T09:47:33.093Z,100.00
2022-12-29T09:57:32.941Z,100.00
2022-12-29T10:07:33.328Z,100.00
2022-12-29T10:17:32.964Z,100.00
2022-12-29T10:27:33.049Z,100.00
2022-12-29T10:37:34.176Z,100.00
2022-12-29T10:47:32.978Z,100.00
2022-12-29T10:57:33.211Z,100.00
2022-12-29T11:07:33.357Z,100.00
2022-12-29T11:17:33.176Z,100.00
2022-12-29T11:27:33.320Z,100.00
2022-12-29T11:37:33.063Z,100.00
2022-12-29T11:47:33.277Z,100.00
2022-12-29T11:57:33.236Z,100.00
2022-12-29T12:07:33.218Z,100.00
2022-12-29T12:17:33.288Z,99.01
2022-12-29T12:27:33.232Z,95.06
2022-12-29T12:37:33.149Z,90.43
2022-12-29T12:47:33.126Z,90.62
2022-12-29T12:57:33.204Z,91.89
2022-12-29T13:07:33.177Z,92.52
2022-12-29T13:17:33.243Z,92.19
2022-12-29T13:27:37.351Z,91.09
2022-12-29T13:37:33.284Z,91.05
2022-12-29T13:47:33.554Z,90.54
2022-12-29T13:57:33.366Z,88.65
2022-12-29T14:07:33.196Z,86.81
2022-12-29T14:17:33.349Z,86.69
2022-12-29T14:27:33.210Z,86.79
2022-12-29T14:37:34.314Z,87.27
2022-12-29T14:47:34.363Z,86.63
2022-12-29T14:57:33.295Z,87.68
2022-12-29T15:07:33.398Z,88.48
2022-12-29T15:17:33.222Z,88.52
2022-12-29T15:27:33.244Z,87.05
2022-12-29T15:37:33.353Z,85.52
2022-12-29T15:47:33.210Z,87.39
2022-12-29T15:57:33.290Z,87.21
2022-12-29T16:07:39.119Z,90.15
2022-12-29T16:17:33.312Z,95.19
2022-12-29T16:27:33.492Z,98.82
2022-12-29T16:37:33.285Z,100.00
2022-12-29T16:47:33.255Z,100.00
2022-12-29T16:57:33.303Z,100.00
2022-12-29T17:07:33.227Z,100.00
2022-12-29T17:17:33.533Z,100.00
2022-12-29T17:27:33.353Z,100.00
2022-12-29T17:37:33.369Z,100.00
2022-12-29T17:47:33.236Z,100.00
2022-12-29T17:57:33.308Z,100.00
2022-12-29T18:07:36.044Z,100.00
2022-12-29T18:17:33.314Z,100.00
2022-12-29T18:27:33.233Z,100.00
2022-12-29T18:37:33.281Z,100.00
2022-12-29T18:47:33.462Z,100.00
2022-12-29T18:57:33.234Z,100.00
2022-12-29T19:07:33.286Z,100.00
2022-12-29T19:17:33.302Z,100.00
